createdAt,value
2017-10-13T00:00:33.909Z,1019.94
2017-10-13T00:01:42.624Z,1019.93
2017-10-13T00:02:51.621Z,1019.91
2017-10-13T00:04:00.637Z,1019.93
2017-10-13T00:05:09.652Z,1019.89
2017-10-13T00:06:19.302Z,1019.86
2017-10-13T00:07:27.995Z,1019.87
2017-10-13T00:08:36.979Z,1019.87
2017-10-13T00:09:46.304Z,1019.9
2017-10-13T00:10:55.969Z,1019.92
2017-10-13T00:12:04.985Z,1019.91
2017-10-13T00:13:14.297Z,1019.92
2017-10-13T00:14:23.610Z,1019.94
2017-10-13T00:15:32.659Z,1019.96
2017-10-13T00:16:41.976Z,1019.96
2017-10-13T00:17:51.310Z,1019.96
2017-10-13T00:19:00.081Z,1019.93
2017-10-13T00:20:09.407Z,1019.95
2017-10-13T00:21:18.402Z,1019.95
2017-10-13T00:22:27.418Z,1019.97
2017-10-13T00:23:36.079Z,1019.95
2017-10-13T00:24:45.410Z,1019.99
2017-10-13T00:25:54.726Z,1020.01
2017-10-13T00:27:03.386Z,1020.03
2017-10-13T00:28:12.374Z,1020.04
2017-10-13T00:29:21.348Z,1020.06
2017-10-13T00:30:30.675Z,1020.05
2017-10-13T00:31:40.000Z,1020.06
2017-10-13T00:32:48.661Z,1020.04
2017-10-13T00:33:57.996Z,1020.04
2017-10-13T00:35:07.000Z,1020.05
2017-10-13T00:36:16.324Z,1020.02
2017-10-13T00:37:26.011Z,1020.03
2017-10-13T00:38:35.335Z,1020.03
2017-10-13T00:39:43.979Z,1020.01
2017-10-13T00:40:52.961Z,1020.02
2017-10-13T00:42:02.305Z,1020
2017-10-13T00:43:11.713Z,1020.01
2017-10-13T00:44:21.371Z,1020.01
2017-10-13T00:45:30.362Z,1019.99
2017-10-13T00:46:39.353Z,1020
2017-10-13T00:47:48.659Z,1019.95
2017-10-13T00:48:57.637Z,1019.95
2017-10-13T00:50:06.292Z,1019.95
2017-10-13T00:51:14.940Z,1019.98
2017-10-13T00:52:23.589Z,1019.98
2017-10-13T00:53:33.002Z,1019.98
2017-10-13T00:54:41.671Z,1019.98
2017-10-13T00:55:50.353Z,1019.96
2017-10-13T00:56:59.060Z,1019.97
2017-10-13T00:58:07.726Z,1020.02
2017-10-13T00:59:17.030Z,1020.06
2017-10-13T01:00:26.023Z,1020.07
2017-10-13T01:01:34.690Z,1020.1
2017-10-13T01:02:43.667Z,1020.13
2017-10-13T01:03:52.335Z,1020.11
2017-10-13T01:05:01.657Z,1020.14
2017-10-13T01:06:10.328Z,1020.14
2017-10-13T01:07:19.637Z,1020.12
2017-10-13T01:08:28.609Z,1020.13
2017-10-13T01:09:37.283Z,1020.1
2017-10-13T01:10:46.606Z,1020.04
2017-10-13T01:11:55.603Z,1020.04
2017-10-13T01:13:04.967Z,1020.07
2017-10-13T01:14:13.694Z,1020.05
2017-10-13T01:15:22.699Z,1020.06
2017-10-13T01:16:31.389Z,1020.07
2017-10-13T01:17:40.082Z,1020.11
2017-10-13T01:18:49.464Z,1020.09
2017-10-13T01:19:58.140Z,1020.07
2017-10-13T01:21:07.475Z,1020.12
2017-10-13T01:22:16.146Z,1020.11
2017-10-13T01:23:25.207Z,1020.15
2017-10-13T01:24:33.894Z,1020.13
2017-10-13T01:25:42.881Z,1020.15
2017-10-13T01:26:51.876Z,1020.12
2017-10-13T01:28:00.860Z,1020.1
2017-10-13T01:29:10.160Z,1020.08
2017-10-13T01:30:19.174Z,1020.08
2017-10-13T01:31:28.177Z,1020.07
2017-10-13T01:32:37.176Z,1020.07
2017-10-13T01:33:46.161Z,1020.1
2017-10-13T01:34:55.206Z,1020.08
2017-10-13T01:36:04.840Z,1020.13
2017-10-13T01:37:13.823Z,1020.14
2017-10-13T01:38:22.800Z,1020.16
2017-10-13T01:39:32.095Z,1020.14
2017-10-13T01:40:41.080Z,1020.15
2017-10-13T01:41:50.079Z,1020.16
2017-10-13T01:42:59.415Z,1020.14
2017-10-13T01:44:08.417Z,1020.14
2017-10-13T01:45:17.520Z,1020.2
2017-10-13T01:46:27.186Z,1020.16
2017-10-13T01:47:36.216Z,1020.1
2017-10-13T01:48:44.873Z,1020.08
2017-10-13T01:49:54.500Z,1020.06
2017-10-13T01:51:03.163Z,1020.06
2017-10-13T01:52:12.489Z,1020.02
2017-10-13T01:53:21.799Z,1019.99
2017-10-13T01:54:30.789Z,1020
2017-10-13T01:55:39.519Z,1019.99
2017-10-13T01:56:48.502Z,1019.99
2017-10-13T01:57:58.467Z,1019.92
2017-10-13T01:59:08.122Z,1019.95
2017-10-13T02:00:17.457Z,1019.93
2017-10-13T02:01:26.107Z,1019.9
2017-10-13T02:02:35.120Z,1019.89
2017-10-13T02:03:43.791Z,1019.84
2017-10-13T02:04:52.445Z,1019.82
2017-10-13T02:06:01.768Z,1019.81
2017-10-13T02:07:10.447Z,1019.77
2017-10-13T02:08:19.524Z,1019.79
2017-10-13T02:09:28.854Z,1019.79
2017-10-13T02:10:37.520Z,1019.76
2017-10-13T02:11:47.158Z,1019.78
2017-10-13T02:12:55.840Z,1019.77
2017-10-13T02:14:05.163Z,1019.75
2017-10-13T02:15:14.150Z,1019.83
2017-10-13T02:16:23.461Z,1019.87
2017-10-13T02:17:33.140Z,1019.89
2017-10-13T02:18:41.801Z,1019.94
2017-10-13T02:19:50.795Z,1019.87
2017-10-13T02:20:59.533Z,1019.85
2017-10-13T02:22:08.519Z,1019.89
2017-10-13T02:23:17.506Z,1019.93
2017-10-13T02:24:26.170Z,1019.89
2017-10-13T02:25:35.509Z,1019.87
2017-10-13T02:26:44.827Z,1019.88
2017-10-13T02:27:54.144Z,1019.86
2017-10-13T02:29:03.142Z,1019.85
2017-10-13T02:30:12.770Z,1019.87
2017-10-13T02:31:22.417Z,1019.84
2017-10-13T02:32:31.414Z,1019.84
2017-10-13T02:33:40.749Z,1019.84
2017-10-13T02:34:50.048Z,1019.79
2017-10-13T02:35:59.039Z,1019.79
2017-10-13T02:37:08.042Z,1019.8
2017-10-13T02:38:16.714Z,1019.79
2017-10-13T02:39:25.690Z,1019.77
2017-10-13T02:40:35.362Z,1019.84
2017-10-13T02:41:44.336Z,1019.83
2017-10-13T02:42:53.308Z,1019.84
2017-10-13T02:44:02.985Z,1019.85
2017-10-13T02:45:11.981Z,1019.89
2017-10-13T02:46:20.660Z,1019.9
2017-10-13T02:47:29.642Z,1019.89
2017-10-13T02:48:38.956Z,1019.93
2017-10-13T02:49:47.948Z,1019.94
2017-10-13T02:50:57.274Z,1019.99
2017-10-13T02:52:06.264Z,1020.01
2017-10-13T02:53:15.589Z,1020.03
2017-10-13T02:54:24.582Z,1020.02
2017-10-13T02:55:33.573Z,1020.05
2017-10-13T02:56:42.568Z,1020.02
2017-10-13T02:57:51.228Z,1019.99
2017-10-13T02:59:00.226Z,1019.96
2017-10-13T03:00:09.215Z,1020
2017-10-13T03:01:17.929Z,1020
2017-10-13T03:02:26.588Z,1019.98
2017-10-13T03:03:36.261Z,1019.98
2017-10-13T03:04:45.252Z,1019.99
2017-10-13T03:05:54.229Z,1019.94
2017-10-13T03:07:02.893Z,1019.96
2017-10-13T03:08:12.579Z,1019.94
2017-10-13T03:09:21.924Z,1019.92
2017-10-13T03:10:30.941Z,1019.92
2017-10-13T03:11:40.964Z,1019.89
2017-10-13T03:12:49.954Z,1019.92
2017-10-13T03:13:58.670Z,1019.95
2017-10-13T03:15:07.657Z,1019.96
2017-10-13T03:16:16.645Z,1019.94
2017-10-13T03:17:25.304Z,1019.98
2017-10-13T03:18:33.943Z,1019.93
2017-10-13T03:19:42.931Z,1019.9
2017-10-13T03:20:51.899Z,1019.91
2017-10-13T03:22:01.534Z,1019.91
2017-10-13T03:23:10.191Z,1019.91
2017-10-13T03:24:19.184Z,1019.87
2017-10-13T03:25:28.155Z,1019.84
2017-10-13T03:26:36.805Z,1019.82
2017-10-13T03:27:45.793Z,1019.85
2017-10-13T03:28:55.132Z,1019.88
2017-10-13T03:30:04.460Z,1019.83
2017-10-13T03:31:13.113Z,1019.86
2017-10-13T03:32:22.423Z,1019.9
2017-10-13T03:33:31.731Z,1019.98
2017-10-13T03:34:41.041Z,1019.97
2017-10-13T03:35:50.359Z,1019.97
2017-10-13T03:36:59.672Z,1020
2017-10-13T03:38:09.011Z,1019.98
2017-10-13T03:39:17.991Z,1019.95
2017-10-13T03:40:26.747Z,1019.95
2017-10-13T03:41:35.737Z,1019.91
2017-10-13T03:42:45.382Z,1019.89
2017-10-13T03:43:54.036Z,1019.89
2017-10-13T03:45:02.728Z,1019.88
2017-10-13T03:46:11.432Z,1019.85
2017-10-13T03:47:20.760Z,1019.84
2017-10-13T03:48:29.769Z,1019.83
2017-10-13T03:49:38.448Z,1019.86
2017-10-13T03:50:47.793Z,1019.8
2017-10-13T03:51:57.438Z,1019.83
2017-10-13T03:53:06.765Z,1019.84
2017-10-13T03:54:15.776Z,1019.84
2017-10-13T03:55:25.112Z,1019.9
2017-10-13T03:56:34.093Z,1019.88
2017-10-13T03:57:43.083Z,1019.88
2017-10-13T03:58:52.392Z,1019.96
2017-10-13T04:00:01.696Z,1019.92
2017-10-13T04:01:11.016Z,1019.96
2017-10-13T04:02:19.735Z,1019.94
2017-10-13T04:03:28.724Z,1019.95
2017-10-13T04:04:38.725Z,1019.95
2017-10-13T04:05:48.358Z,1019.92
2017-10-13T04:06:57.035Z,1019.9
2017-10-13T04:08:06.685Z,1019.88
2017-10-13T04:09:15.345Z,1019.94
2017-10-13T04:10:24.660Z,1019.88
2017-10-13T04:11:33.965Z,1019.87
2017-10-13T04:12:43.318Z,1019.9
2017-10-13T04:13:52.285Z,1019.91
2017-10-13T04:15:01.611Z,1019.86
2017-10-13T04:16:10.987Z,1019.9
2017-10-13T04:17:19.642Z,1019.89
2017-10-13T04:18:28.693Z,1019.9
2017-10-13T04:19:37.370Z,1019.96
2017-10-13T04:20:46.348Z,1019.94
2017-10-13T04:21:55.331Z,1019.95
2017-10-13T04:23:04.638Z,1019.91
2017-10-13T04:24:13.957Z,1019.95
2017-10-13T04:25:22.970Z,1019.92
2017-10-13T04:26:32.614Z,1019.93
2017-10-13T04:27:41.617Z,1019.97
2017-10-13T04:28:50.605Z,1019.94
2017-10-13T04:29:59.604Z,1019.94
2017-10-13T04:31:08.930Z,1019.95
2017-10-13T04:32:17.927Z,1019.94
2017-10-13T04:33:26.909Z,1019.96
2017-10-13T04:34:35.908Z,1019.98
2017-10-13T04:35:45.231Z,1019.94
2017-10-13T04:36:53.890Z,1019.95
2017-10-13T04:38:02.871Z,1019.99
2017-10-13T04:39:12.191Z,1019.98
2017-10-13T04:40:20.842Z,1019.99
2017-10-13T04:41:30.191Z,1020
2017-10-13T04:42:39.521Z,1019.99
2017-10-13T04:43:48.500Z,1019.99
2017-10-13T04:44:57.824Z,1020.02
2017-10-13T04:46:06.480Z,1020.01
2017-10-13T04:47:15.140Z,1020.02
2017-10-13T04:48:23.793Z,1019.99
2017-10-13T04:49:32.774Z,1020.01
2017-10-13T04:50:42.119Z,1019.99
2017-10-13T04:51:51.116Z,1020.01
2017-10-13T04:52:59.774Z,1020.02
2017-10-13T04:54:09.084Z,1020.01
2017-10-13T04:55:18.384Z,1020.04
2017-10-13T04:56:27.053Z,1020
2017-10-13T04:57:36.038Z,1020.03
2017-10-13T04:58:45.090Z,1019.99
2017-10-13T04:59:53.744Z,1020
2017-10-13T05:01:03.398Z,1020.01
2017-10-13T05:02:12.395Z,1020.02
2017-10-13T05:03:21.777Z,1020
2017-10-13T05:04:31.115Z,1020.01
2017-10-13T05:05:40.574Z,1020
2017-10-13T05:06:49.575Z,1020
2017-10-13T05:07:58.585Z,1020
2017-10-13T05:09:07.912Z,1020.04
2017-10-13T05:10:16.575Z,1020.03
2017-10-13T05:11:25.947Z,1020.1
2017-10-13T05:12:34.651Z,1020.05
2017-10-13T05:13:43.289Z,1020.09
2017-10-13T05:14:52.301Z,1020.11
2017-10-13T05:16:01.647Z,1020.08
2017-10-13T05:17:11.631Z,1020.08
2017-10-13T05:18:20.295Z,1020.03
2017-10-13T05:19:29.630Z,1020.02
2017-10-13T05:20:38.634Z,1020.03
2017-10-13T05:21:47.960Z,1020.01
2017-10-13T05:22:57.961Z,1020
2017-10-13T05:24:06.992Z,1019.99
2017-10-13T05:25:15.976Z,1020.01
2017-10-13T05:26:24.966Z,1020.01
2017-10-13T05:27:33.940Z,1019.97
2017-10-13T05:28:43.578Z,1019.99
2017-10-13T05:29:53.224Z,1019.98
2017-10-13T05:31:02.196Z,1020
2017-10-13T05:32:11.835Z,1020.02
2017-10-13T05:33:21.501Z,1020.02
2017-10-13T05:34:30.518Z,1019.98
2017-10-13T05:35:39.940Z,1019.99
2017-10-13T05:36:48.933Z,1019.95
2017-10-13T05:37:58.270Z,1020
2017-10-13T05:39:06.921Z,1019.96
2017-10-13T05:40:15.960Z,1020.02
2017-10-13T05:41:24.619Z,1020.04
2017-10-13T05:42:33.614Z,1020.11
2017-10-13T05:43:42.959Z,1020.1
2017-10-13T05:44:51.959Z,1020.07
2017-10-13T05:46:00.976Z,1020.03
2017-10-13T05:47:10.314Z,1019.96
2017-10-13T05:48:19.647Z,1019.99
2017-10-13T05:49:28.642Z,1020.05
2017-10-13T05:50:37.299Z,1020.03
2017-10-13T05:51:46.040Z,1020.07
2017-10-13T05:52:56.032Z,1020.07
2017-10-13T05:54:05.610Z,1020.12
2017-10-13T05:55:15.641Z,1020.14
2017-10-13T05:56:25.728Z,1020.17
2017-10-13T05:57:34.700Z,1020.16
2017-10-13T05:58:43.705Z,1020.17
2017-10-13T05:59:52.373Z,1020.18
2017-10-13T06:01:01.493Z,1020.14
2017-10-13T06:02:10.844Z,1020.19
2017-10-13T06:03:19.525Z,1020.15
2017-10-13T06:04:28.584Z,1020.19
2017-10-13T06:05:37.771Z,1020.21
2017-10-13T06:06:47.130Z,1020.21
2017-10-13T06:07:56.124Z,1020.19
2017-10-13T06:09:05.103Z,1020.21
2017-10-13T06:10:14.498Z,1020.19
2017-10-13T06:11:23.509Z,1020.23
2017-10-13T06:12:32.228Z,1020.22
2017-10-13T06:13:40.953Z,1020.22
2017-10-13T06:14:49.946Z,1020.21
2017-10-13T06:15:59.320Z,1020.17
2017-10-13T06:17:08.312Z,1020.21
2017-10-13T06:18:17.332Z,1020.19
2017-10-13T06:19:26.349Z,1020.2
2017-10-13T06:20:35.690Z,1020.18
2017-10-13T06:21:44.692Z,1020.16
2017-10-13T06:22:53.352Z,1020.13
2017-10-13T06:24:03.380Z,1020.11
2017-10-13T06:25:12.041Z,1020.1
2017-10-13T06:26:21.401Z,1020.12
2017-10-13T06:27:30.065Z,1020.13
2017-10-13T06:28:38.780Z,1020.13
2017-10-13T06:29:48.118Z,1020.15
2017-10-13T06:30:57.115Z,1020.12
2017-10-13T06:32:06.774Z,1020.12
2017-10-13T06:33:16.094Z,1020.14
2017-10-13T06:34:25.073Z,1020.17
2017-10-13T06:35:34.055Z,1020.2
2017-10-13T06:36:43.702Z,1020.18
2017-10-13T06:37:52.375Z,1020.24
2017-10-13T06:39:01.365Z,1020.26
2017-10-13T06:40:10.700Z,1020.3
2017-10-13T06:41:19.698Z,1020.28
2017-10-13T06:42:28.716Z,1020.3
2017-10-13T06:43:38.072Z,1020.32
2017-10-13T06:44:47.757Z,1020.37
2017-10-13T06:45:56.743Z,1020.34
2017-10-13T06:47:06.072Z,1020.43
2017-10-13T06:48:15.725Z,1020.39
2017-10-13T06:49:24.379Z,1020.42
2017-10-13T06:50:34.113Z,1020.43
2017-10-13T06:51:42.780Z,1020.43
2017-10-13T06:52:52.419Z,1020.46
2017-10-13T06:54:01.417Z,1020.46
2017-10-13T06:55:11.082Z,1020.49
2017-10-13T06:56:19.739Z,1020.52
2017-10-13T06:57:29.068Z,1020.51
2017-10-13T06:58:38.407Z,1020.45
2017-10-13T06:59:47.732Z,1020.53
2017-10-13T07:00:56.721Z,1020.55
2017-10-13T07:02:06.384Z,1020.55
2017-10-13T07:03:15.698Z,1020.59
2017-10-13T07:04:24.686Z,1020.58
2017-10-13T07:05:33.342Z,1020.56
2017-10-13T07:06:42.661Z,1020.62
2017-10-13T07:07:51.659Z,1020.59
2017-10-13T07:09:00.339Z,1020.63
2017-10-13T07:10:09.639Z,1020.61
2017-10-13T07:11:18.941Z,1020.62
2017-10-13T07:12:27.923Z,1020.63
2017-10-13T07:13:37.222Z,1020.64
2017-10-13T07:14:46.874Z,1020.62
2017-10-13T07:15:55.894Z,1020.55
2017-10-13T07:17:05.219Z,1020.52
2017-10-13T07:18:14.203Z,1020.55
2017-10-13T07:20:31.618Z,1020.52
2017-10-13T07:21:40.602Z,1020.46
2017-10-13T07:22:49.943Z,1020.47
2017-10-13T07:23:58.598Z,1020.51
2017-10-13T07:25:07.913Z,1020.52
2017-10-13T07:26:16.643Z,1020.52
2017-10-13T07:27:25.615Z,1020.54
2017-10-13T07:28:35.255Z,1020.52
2017-10-13T07:29:44.584Z,1020.54
2017-10-13T07:30:54.583Z,1020.56
2017-10-13T07:32:03.336Z,1020.57
2017-10-13T07:33:12.989Z,1020.6
2017-10-13T07:34:22.327Z,1020.59
2017-10-13T07:35:31.699Z,1020.61
2017-10-13T07:36:41.016Z,1020.6
2017-10-13T07:37:49.716Z,1020.64
2017-10-13T07:38:58.369Z,1020.66
2017-10-13T07:40:07.372Z,1020.64
2017-10-13T07:41:16.666Z,1020.64
2017-10-13T07:42:26.013Z,1020.6
2017-10-13T07:43:35.028Z,1020.64
2017-10-13T07:44:44.342Z,1020.67
2017-10-13T07:45:53.374Z,1020.7
2017-10-13T07:47:02.494Z,1020.75
2017-10-13T07:48:11.868Z,1020.73
2017-10-13T07:49:21.255Z,1020.75
2017-10-13T07:50:30.248Z,1020.79
2017-10-13T07:51:39.227Z,1020.77
2017-10-13T07:52:48.220Z,1020.77
2017-10-13T07:53:57.899Z,1020.79
2017-10-13T07:55:06.891Z,1020.81
2017-10-13T07:56:15.571Z,1020.75
2017-10-13T07:57:24.233Z,1020.78
2017-10-13T07:58:33.255Z,1020.78
2017-10-13T07:59:42.005Z,1020.79
2017-10-13T08:00:50.708Z,1020.84
2017-10-13T08:01:59.784Z,1020.86
2017-10-13T08:03:08.778Z,1020.87
2017-10-13T08:04:17.763Z,1020.86
2017-10-13T08:05:27.075Z,1020.92
2017-10-13T08:06:36.743Z,1020.94
2017-10-13T08:07:46.065Z,1020.93
2017-10-13T08:08:56.089Z,1020.95
2017-10-13T08:10:05.060Z,1021.01
2017-10-13T08:11:14.072Z,1021.01
2017-10-13T08:12:23.427Z,1021.05
2017-10-13T08:13:32.731Z,1021.06
2017-10-13T08:14:42.387Z,1021.07
2017-10-13T08:15:51.080Z,1021.08
2017-10-13T08:17:00.207Z,1021.04
2017-10-13T08:18:09.544Z,1021.08
2017-10-13T08:19:19.291Z,1021.11
2017-10-13T08:20:29.296Z,1021.13
2017-10-13T08:21:38.615Z,1021.13
2017-10-13T08:22:48.296Z,1021.13
2017-10-13T08:23:56.983Z,1021.18
2017-10-13T08:25:06.644Z,1021.15
2017-10-13T08:26:16.023Z,1021.17
2017-10-13T08:27:25.023Z,1021.18
2017-10-13T08:28:34.086Z,1021.2
2017-10-13T08:29:43.358Z,1021.19
2017-10-13T08:30:52.674Z,1021.15
2017-10-13T08:32:01.657Z,1021.15
2017-10-13T08:33:11.313Z,1021.15
2017-10-13T08:34:20.301Z,1021.14
2017-10-13T08:35:29.727Z,1021.13
2017-10-13T08:36:38.397Z,1021.12
2017-10-13T08:37:47.266Z,1021.13
2017-10-13T08:38:56.583Z,1021.12
2017-10-13T08:40:07.424Z,1021.14
2017-10-13T08:41:16.741Z,1021.14
2017-10-13T08:42:25.746Z,1021.11
2017-10-13T08:43:35.070Z,1021.12
2017-10-13T08:44:44.065Z,1021.08
2017-10-13T08:45:53.068Z,1021.1
2017-10-13T08:47:01.733Z,1021.1
2017-10-13T08:48:11.040Z,1021.1
2017-10-13T08:49:20.091Z,1021.12
2017-10-13T08:50:28.763Z,1021.1
2017-10-13T08:51:37.757Z,1021.09
2017-10-13T08:52:46.856Z,1021.12
2017-10-13T08:53:55.847Z,1021.07
2017-10-13T08:55:04.906Z,1021.1
2017-10-13T08:56:13.565Z,1021.11
2017-10-13T08:57:22.549Z,1021.07
2017-10-13T08:58:31.231Z,1021.1
2017-10-13T08:59:39.897Z,1021.1
2017-10-13T09:00:48.580Z,1021.09
2017-10-13T09:01:57.554Z,1021.07
2017-10-13T09:03:07.196Z,1021.08
2017-10-13T09:04:16.833Z,1021.05
2017-10-13T09:05:25.488Z,1021.05
2017-10-13T09:06:34.488Z,1021.11
2017-10-13T09:07:43.177Z,1021.13
2017-10-13T09:08:52.547Z,1021.11
2017-10-13T09:10:01.539Z,1021.18
2017-10-13T09:11:11.247Z,1021.15
2017-10-13T09:12:20.555Z,1021.15
2017-10-13T09:13:29.899Z,1021.19
2017-10-13T09:14:38.878Z,1021.13
2017-10-13T09:15:47.529Z,1021.19
2017-10-13T09:16:56.836Z,1021.13
2017-10-13T09:18:06.165Z,1021.17
2017-10-13T09:19:14.886Z,1021.16
2017-10-13T09:20:23.542Z,1021.2
2017-10-13T09:21:32.593Z,1021.18
2017-10-13T09:22:41.588Z,1021.18
2017-10-13T09:23:50.597Z,1021.22
2017-10-13T09:24:59.575Z,1021.19
2017-10-13T09:26:08.892Z,1021.21
2017-10-13T09:28:27.779Z,1021.26
2017-10-13T09:29:37.087Z,1021.24
2017-10-13T09:30:45.746Z,1021.21
2017-10-13T09:31:54.407Z,1021.21
2017-10-13T09:33:03.505Z,1021.19
2017-10-13T09:34:12.222Z,1021.16
2017-10-13T09:35:21.227Z,1021.22
2017-10-13T09:36:30.241Z,1021.19
2017-10-13T09:37:39.278Z,1021.18
2017-10-13T09:38:48.661Z,1021.15
2017-10-13T09:39:57.317Z,1021.14
2017-10-13T09:41:06.298Z,1021.18
2017-10-13T09:42:15.012Z,1021.17
2017-10-13T09:43:24.029Z,1021.18
2017-10-13T09:44:32.744Z,1021.17
2017-10-13T09:45:41.417Z,1021.18
2017-10-13T09:46:50.090Z,1021.17
2017-10-13T09:47:58.746Z,1021.14
2017-10-13T09:49:09.102Z,1021.14
2017-10-13T09:50:17.849Z,1021.09
2017-10-13T09:51:27.477Z,1021.12
2017-10-13T09:52:36.814Z,1021.15
2017-10-13T09:53:45.825Z,1021.17
2017-10-13T09:54:54.857Z,1021.16
2017-10-13T09:56:03.541Z,1021.17
2017-10-13T09:57:12.545Z,1021.17
2017-10-13T09:58:21.214Z,1021.18
2017-10-13T09:59:30.577Z,1021.23
2017-10-13T10:00:39.895Z,1021.15
2017-10-13T10:01:49.271Z,1021.19
2017-10-13T10:02:58.574Z,1021.23
2017-10-13T10:04:07.900Z,1021.2
2017-10-13T10:05:17.221Z,1021.21
2017-10-13T10:06:25.888Z,1021.2
2017-10-13T10:07:34.912Z,1021.22
2017-10-13T10:08:43.913Z,1021.19
2017-10-13T10:09:53.273Z,1021.18
2017-10-13T10:11:02.649Z,1021.2
2017-10-13T10:12:11.618Z,1021.21
2017-10-13T10:13:21.300Z,1021.2
2017-10-13T10:14:30.618Z,1021.23
2017-10-13T10:15:39.413Z,1021.23
2017-10-13T10:16:48.409Z,1021.25
2017-10-13T10:17:57.717Z,1021.26
2017-10-13T10:19:07.028Z,1021.26
2017-10-13T10:20:15.709Z,1021.28
2017-10-13T10:21:24.725Z,1021.25
2017-10-13T10:22:33.442Z,1021.28
2017-10-13T10:23:42.420Z,1021.27
2017-10-13T10:24:51.092Z,1021.23
2017-10-13T10:26:00.399Z,1021.24
2017-10-13T10:27:09.407Z,1021.22
2017-10-13T10:28:18.080Z,1021.21
2017-10-13T10:29:27.403Z,1021.24
2017-10-13T10:30:36.402Z,1021.23
2017-10-13T10:31:45.753Z,1021.25
2017-10-13T10:32:55.069Z,1021.24
2017-10-13T10:34:03.726Z,1021.22
2017-10-13T10:35:12.388Z,1021.24
2017-10-13T10:36:21.380Z,1021.21
2017-10-13T10:37:30.098Z,1021.19
2017-10-13T10:38:39.414Z,1021.19
2017-10-13T10:39:48.730Z,1021.18
2017-10-13T10:40:58.050Z,1021.21
2017-10-13T10:42:07.390Z,1021.22
2017-10-13T10:43:16.392Z,1021.24
2017-10-13T10:44:25.382Z,1021.2
2017-10-13T10:45:34.041Z,1021.3
2017-10-13T10:46:42.751Z,1021.25
2017-10-13T10:47:52.177Z,1021.26
2017-10-13T10:49:01.171Z,1021.27
2017-10-13T10:50:10.488Z,1021.28
2017-10-13T10:51:19.183Z,1021.32
2017-10-13T10:52:28.176Z,1021.25
2017-10-13T10:53:37.827Z,1021.25
2017-10-13T10:54:47.482Z,1021.28
2017-10-13T10:55:56.468Z,1021.25
2017-10-13T10:57:05.494Z,1021.22
2017-10-13T10:58:14.163Z,1021.23
2017-10-13T10:59:23.502Z,1021.2
2017-10-13T11:00:32.552Z,1021.27
2017-10-13T11:01:41.861Z,1021.22
2017-10-13T11:02:51.506Z,1021.23
2017-10-13T11:04:00.870Z,1021.2
2017-10-13T11:05:09.522Z,1021.22
2017-10-13T11:06:18.497Z,1021.2
2017-10-13T11:07:27.478Z,1021.22
2017-10-13T11:08:36.166Z,1021.19
2017-10-13T11:09:44.841Z,1021.22
2017-10-13T11:10:53.834Z,1021.22
2017-10-13T11:12:02.520Z,1021.19
2017-10-13T11:13:11.846Z,1021.16
2017-10-13T11:14:20.831Z,1021.15
2017-10-13T11:15:30.151Z,1021.14
2017-10-13T11:16:39.919Z,1021.15
2017-10-13T11:17:48.587Z,1021.12
2017-10-13T11:18:57.590Z,1021.11
2017-10-13T11:20:06.892Z,1021.12
2017-10-13T11:21:15.874Z,1021.12
2017-10-13T11:22:25.193Z,1021.09
2017-10-13T11:23:34.184Z,1021.07
2017-10-13T11:24:43.499Z,1021.14
2017-10-13T11:25:52.162Z,1021.12
2017-10-13T11:27:01.147Z,1021.06
2017-10-13T11:28:09.810Z,1021.07
2017-10-13T11:29:18.788Z,1021.07
2017-10-13T11:30:27.773Z,1021.02
2017-10-13T11:31:36.743Z,1021.04
2017-10-13T11:32:46.056Z,1021.06
2017-10-13T11:33:55.398Z,1021.05
2017-10-13T11:35:04.458Z,1021.03
2017-10-13T11:36:13.477Z,1020.99
2017-10-13T11:37:22.148Z,1020.98
2017-10-13T11:38:31.500Z,1020.94
2017-10-13T11:39:40.264Z,1020.89
2017-10-13T11:40:49.898Z,1020.93
2017-10-13T11:41:58.572Z,1020.91
2017-10-13T11:43:08.569Z,1020.89
2017-10-13T11:44:17.546Z,1020.96
2017-10-13T11:45:26.565Z,1020.93
2017-10-13T11:46:35.888Z,1020.99
2017-10-13T11:47:45.222Z,1020.93
2017-10-13T11:48:54.288Z,1020.95
2017-10-13T11:50:03.646Z,1020.97
2017-10-13T11:51:12.966Z,1020.96
2017-10-13T11:52:22.298Z,1020.92
2017-10-13T11:53:31.945Z,1020.95
2017-10-13T11:54:40.614Z,1020.94
2017-10-13T11:55:49.285Z,1020.97
2017-10-13T11:56:58.609Z,1020.91
2017-10-13T11:58:07.934Z,1020.89
2017-10-13T11:59:16.618Z,1020.87
2017-10-13T12:00:26.311Z,1020.9
2017-10-13T12:01:35.320Z,1020.85
2017-10-13T12:02:44.662Z,1020.86
2017-10-13T12:03:53.332Z,1020.82
2017-10-13T12:05:02.661Z,1020.88
2017-10-13T12:06:11.660Z,1020.84
2017-10-13T12:07:20.656Z,1020.8
2017-10-13T12:08:29.639Z,1020.79
2017-10-13T12:09:38.613Z,1020.8
2017-10-13T12:10:47.928Z,1020.76
2017-10-13T12:11:56.917Z,1020.79
2017-10-13T12:13:05.925Z,1020.82
2017-10-13T12:14:14.583Z,1020.78
2017-10-13T12:15:24.228Z,1020.78
2017-10-13T12:16:33.200Z,1020.78
2017-10-13T12:17:41.860Z,1020.78
2017-10-13T12:18:50.923Z,1020.75
2017-10-13T12:19:59.971Z,1020.78
2017-10-13T12:21:08.982Z,1020.74
2017-10-13T12:22:17.640Z,1020.76
2017-10-13T12:23:26.638Z,1020.75
2017-10-13T12:24:36.326Z,1020.74
2017-10-13T12:25:45.966Z,1020.79
2017-10-13T12:26:54.979Z,1020.77
2017-10-13T12:28:04.305Z,1020.77
2017-10-13T12:29:13.285Z,1020.77
2017-10-13T12:30:22.600Z,1020.77
2017-10-13T12:31:31.925Z,1020.79
2017-10-13T12:32:41.255Z,1020.79
2017-10-13T12:33:50.021Z,1020.77
2017-10-13T12:34:59.008Z,1020.79
2017-10-13T12:36:07.698Z,1020.77
2017-10-13T12:37:16.724Z,1020.8
2017-10-13T12:38:25.708Z,1020.79
2017-10-13T12:39:34.707Z,1020.78
2017-10-13T12:40:43.701Z,1020.8
2017-10-13T12:41:53.036Z,1020.77
2017-10-13T12:43:02.429Z,1020.79
2017-10-13T12:44:11.440Z,1020.76
2017-10-13T12:45:20.130Z,1020.76
2017-10-13T12:46:29.767Z,1020.8
2017-10-13T12:47:39.073Z,1020.84
2017-10-13T12:48:47.761Z,1020.81
2017-10-13T12:49:56.396Z,1020.86
2017-10-13T12:51:05.394Z,1020.78
2017-10-13T12:52:14.383Z,1020.79
2017-10-13T12:53:23.362Z,1020.76
2017-10-13T12:54:32.333Z,1020.78
2017-10-13T12:55:41.998Z,1020.78
2017-10-13T12:56:51.007Z,1020.76
2017-10-13T12:58:00.328Z,1020.74
2017-10-13T12:59:09.308Z,1020.7
2017-10-13T13:00:18.019Z,1020.65
2017-10-13T13:01:27.026Z,1020.64
2017-10-13T13:02:35.704Z,1020.66
2017-10-13T13:03:45.038Z,1020.64
2017-10-13T13:04:54.034Z,1020.62
2017-10-13T13:06:03.372Z,1020.61
2017-10-13T13:07:12.369Z,1020.62
2017-10-13T13:08:21.698Z,1020.6
2017-10-13T13:09:30.368Z,1020.58
2017-10-13T13:10:39.768Z,1020.62
2017-10-13T13:11:49.130Z,1020.62
2017-10-13T13:12:58.118Z,1020.65
2017-10-13T13:14:07.443Z,1020.63
2017-10-13T13:15:17.093Z,1020.63
2017-10-13T13:16:26.144Z,1020.64
2017-10-13T13:17:35.231Z,1020.67
2017-10-13T13:18:44.258Z,1020.68
2017-10-13T13:19:52.921Z,1020.63
2017-10-13T13:21:01.917Z,1020.62
2017-10-13T13:22:11.562Z,1020.61
2017-10-13T13:23:20.211Z,1020.66
2017-10-13T13:24:29.273Z,1020.63
2017-10-13T13:25:37.980Z,1020.64
2017-10-13T13:26:46.962Z,1020.65
2017-10-13T13:27:56.293Z,1020.61
2017-10-13T13:29:05.701Z,1020.66
2017-10-13T13:30:14.692Z,1020.66
2017-10-13T13:31:23.677Z,1020.7
2017-10-13T13:32:33.017Z,1020.67
2017-10-13T13:33:42.658Z,1020.72
2017-10-13T13:34:51.337Z,1020.67
2017-10-13T13:36:00.652Z,1020.65
2017-10-13T13:37:09.978Z,1020.64
2017-10-13T13:38:18.971Z,1020.71
2017-10-13T13:39:28.280Z,1020.69
2017-10-13T13:40:37.342Z,1020.69
2017-10-13T13:41:46.667Z,1020.69
2017-10-13T13:42:55.653Z,1020.68
2017-10-13T13:44:04.346Z,1020.68
2017-10-13T13:45:13.672Z,1020.69
2017-10-13T13:46:22.681Z,1020.68
2017-10-13T13:47:32.366Z,1020.68
2017-10-13T13:48:41.034Z,1020.71
2017-10-13T13:49:49.706Z,1020.69
2017-10-13T13:50:59.679Z,1020.68
2017-10-13T13:52:08.658Z,1020.69
2017-10-13T13:53:17.325Z,1020.7
2017-10-13T13:54:26.654Z,1020.69
2017-10-13T13:55:35.653Z,1020.73
2017-10-13T13:56:44.682Z,1020.67
2017-10-13T13:57:53.651Z,1020.66
2017-10-13T13:59:02.623Z,1020.67
2017-10-13T14:00:11.602Z,1020.67
2017-10-13T14:01:20.266Z,1020.64